Time;durP1;ratioP1;P1;durP2;ratioP2;P2;SDS_P1;SDS_P2;PMS_P1;PMS_P2;Temp;Humidity;BMP_temperature;BMP_pressure;BME280_temperature;BME280_humidity;BME280_pressure;Samples;Min_cycle;Max_cycle;Signal;HPM_P1;HPM_P2
2022/08/26 00:07:10;;;;;;;10.10;4.80;;;;;;;23.98;68.24;100182.09;18431416;32;20112;-56
2022/08/26 00:17:14;;;;;;;12.57;3.40;;;;;;;23.98;68.03;100176.75;18431002;32;20136;-55
2022/08/26 00:27:18;;;;;;;9.98;3.50;;;;;;;23.72;68.99;100170.38;18430343;32;20100;-56
2022/08/26 00:37:22;;;;;;;9.18;3.95;;;;;;;23.61;68.99;100172.84;18430965;32;20477;-55
2022/08/26 00:47:34;;;;;;;8.82;3.50;;;;;;;23.53;69.37;100176.81;18429200;32;20141;-56
2022/08/26 00:57:39;;;;;;;10.65;3.62;;;;;;;23.66;68.55;100166.28;18428968;32;20089;-56
2022/08/26 01:07:44;;;;;;;8.23;3.42;;;;;;;23.64;68.19;100157.53;18428183;32;20088;-56
2022/08/26 01:17:48;;;;;;;8.98;3.58;;;;;;;23.46;68.55;100158.66;18427764;32;20097;-56
2022/08/26 01:27:56;;;;;;;10.05;3.95;;;;;;;23.41;68.64;100162.44;18436020;32;20354;-56
2022/08/26 01:38:01;;;;;;;9.65;3.87;;;;;;;23.30;68.71;100158.72;18436237;32;20143;-56
2022/08/26 01:48:10;;;;;;;8.77;3.70;;;;;;;23.20;68.83;100158.38;18421380;32;20136;-55
2022/08/26 01:58:17;;;;;;;9.20;3.37;;;;;;;23.20;68.90;100158.38;18435533;32;20140;-56
2022/08/26 02:08:24;;;;;;;8.82;3.60;;;;;;;23.00;69.53;100157.72;18435036;32;20108;-56
2022/08/26 02:18:28;;;;;;;7.65;3.62;;;;;;;23.12;68.23;100146.34;18434327;32;20085;-57
2022/08/26 02:28:39;;;;;;;7.70;3.37;;;;;;;22.99;68.49;100156.03;18434264;32;20092;-56
2022/08/26 02:38:42;;;;;;;7.17;3.33;;;;;;;22.98;67.95;100154.31;18433861;32;20081;-56
2022/08/26 02:48:49;;;;;;;10.57;3.75;;;;;;;22.89;67.92;100149.53;18433703;32;20093;-56
2022/08/26 02:58:53;;;;;;;7.20;3.30;;;;;;;22.66;68.44;100146.38;18433567;32;20092;-56
2022/08/26 03:08:57;;;;;;;9.70;3.95;;;;;;;22.67;68.00;100148.06;18433393;32;20139;-56
2022/08/26 03:19:02;;;;;;;10.23;4.40;;;;;;;22.51;68.69;100150.75;18432814;32;20114;-56
2022/08/26 03:39:28;;;;;;;8.77;3.58;;;;;;;22.42;68.59;100146.78;18432537;32;20120;-56
2022/08/26 03:49:35;;;;;;;9.40;3.80;;;;;;;22.49;68.15;100132.25;18430733;32;20089;-56
2022/08/26 03:59:39;;;;;;;10.30;3.67;;;;;;;22.38;67.88;100127.50;18431394;32;20092;-56
2022/08/26 04:09:44;;;;;;;9.25;3.78;;;;;;;22.35;68.36;100140.09;18431450;32;20353;-56
2022/08/26 04:19:48;;;;;;;9.25;3.60;;;;;;;22.35;68.13;100129.47;18431004;32;20107;-56
2022/08/26 04:29:53;;;;;;;8.88;4.18;;;;;;;22.22;68.56;100140.78;18430444;32;20456;-56
2022/08/26 04:39:57;;;;;;;7.62;3.78;;;;;;;22.41;67.71;100132.63;18429939;32;20124;-56
2022/08/26 04:50:02;;;;;;;9.45;3.95;;;;;;;22.47;67.99;100138.56;18427404;32;20100;-56
2022/08/26 05:00:06;;;;;;;12.05;3.90;;;;;;;22.66;68.12;100131.28;18431515;32;20139;-56
2022/08/26 05:10:11;;;;;;;8.68;4.10;;;;;;;22.88;68.24;100132.69;18420658;32;20362;-56
2022/08/26 05:20:16;;;;;;;10.15;3.90;;;;;;;23.04;68.70;100139.78;18433299;32;20093;-56
2022/08/26 05:30:30;;;;;;;10.63;4.10;;;;;;;23.40;69.02;100139.41;18431508;32;20080;-56
2022/08/26 05:40:34;;;;;;;10.27;4.07;;;;;;;23.80;69.03;100141.44;18432819;32;20085;-56
2022/08/26 05:50:39;;;;;;;10.93;4.20;;;;;;;24.35;68.83;100143.41;18432567;32;20096;-56
2022/08/26 06:00:45;;;;;;;10.10;4.05;;;;;;;25.33;66.27;100143.22;18435143;32;20111;-56
2022/08/26 06:10:51;;;;;;;10.48;4.20;;;;;;;26.50;62.00;100142.28;18434155;32;20439;-56
2022/08/26 06:20:54;;;;;;;11.48;3.60;;;;;;;27.58;59.89;100137.81;18434171;32;20101;-56
2022/08/26 06:31:02;;;;;;;12.52;3.40;;;;;;;28.30;57.34;100155.37;18427958;32;20426;-57
2022/08/26 06:41:09;;;;;;;9.48;3.50;;;;;;;28.53;56.28;100153.50;18431619;32;20437;-56
2022/08/26 06:51:16;;;;;;;8.18;3.58;;;;;;;28.92;55.63;100162.91;18434736;32;20389;-56
2022/08/26 07:01:23;;;;;;;10.40;3.42;;;;;;;29.00;53.42;100157.75;18431348;32;20431;-56
2022/08/26 07:11:28;;;;;;;11.80;2.90;;;;;;;28.72;52.76;100164.53;18425077;32;152642;-56
2022/08/26 07:21:32;;;;;;;7.87;2.70;;;;;;;30.32;49.86;100145.56;18432308;32;20158;-56
2022/08/26 07:31:37;;;;;;;11.82;3.00;;;;;;;31.01;45.05;100149.19;18432665;32;20081;-57
2022/08/26 07:41:46;;;;;;;12.05;3.20;;;;;;;31.17;43.09;100138.81;18433009;32;20089;-56
2022/08/26 07:51:51;;;;;;;9.25;3.03;;;;;;;31.30;39.22;100139.38;18431846;32;20132;-56
2022/08/26 08:01:57;;;;;;;11.80;3.42;;;;;;;30.59;39.56;100142.19;18431011;32;20108;-56
2022/08/26 08:12:03;;;;;;;8.95;2.65;;;;;;;30.91;40.08;100137.56;18431267;32;20093;-56
2022/08/26 08:22:06;;;;;;;11.55;3.17;;;;;;;31.21;40.22;100132.16;18428320;32;20117;-56
2022/08/26 08:32:21;;;;;;;10.00;2.87;;;;;;;30.74;38.83;100125.66;18429560;32;20100;-56
2022/08/26 08:42:37;;;;;;;7.68;2.70;;;;;;;30.79;40.40;100122.53;18430335;32;20128;-56
2022/08/26 08:52:44;;;;;;;9.80;2.92;;;;;;;31.44;38.92;100110.25;18429023;32;20508;-56
2022/08/26 09:02:52;;;;;;;8.35;2.53;;;;;;;31.11;39.16;100107.88;18425020;32;20089;-56
2022/08/26 09:13:00;;;;;;;7.32;2.55;;;;;;;31.56;36.85;100100.97;18427710;32;20718;-56
2022/08/26 09:23:09;;;;;;;8.60;2.78;;;;;;;32.32;36.47;100098.19;18426440;32;20100;-56
2022/08/26 09:33:17;;;;;;;9.15;2.70;;;;;;;32.17;34.35;100093.31;18426706;32;20090;-57
2022/08/26 09:43:20;;;;;;;10.75;2.45;;;;;;;32.74;33.06;100080.53;18430142;32;20369;-56
2022/08/26 09:53:29;;;;;;;8.80;2.70;;;;;;;33.52;33.70;100065.38;18433851;32;20105;-56
2022/08/26 10:03:35;;;;;;;10.55;2.92;;;;;;;34.11;32.54;100061.88;18432029;32;20108;-57
2022/08/26 10:13:42;;;;;;;11.50;2.70;;;;;;;33.93;32.79;100069.25;18434289;32;20077;-56
2022/08/26 10:23:48;;;;;;;11.77;2.95;;;;;;;34.54;33.00;100050.94;18434363;32;20192;-57
2022/08/26 10:33:53;;;;;;;5.60;2.20;;;;;;;35.05;31.97;100044.50;18434132;32;20142;-57
2022/08/26 10:44:03;;;;;;;9.18;2.53;;;;;;;35.27;32.15;100039.34;18434936;32;20338;-57
2022/08/26 10:54:11;;;;;;;8.60;2.70;;;;;;;35.67;31.00;100028.53;18433210;32;20089;-57
2022/08/26 11:04:23;;;;;;;7.97;2.62;;;;;;;35.50;29.85;100011.44;18434710;32;20103;-57
2022/08/26 11:14:38;;;;;;;9.57;2.80;;;;;;;35.37;30.99;100006.56;18433532;32;20104;-57
2022/08/26 11:25:12;;;;;;;9.32;2.33;;;;;;;35.78;31.39;99997.41;18432799;32;20081;-57
2022/08/26 11:35:45;;;;;;;7.90;2.40;;;;;;;34.80;30.79;99993.00;18433144;32;20093;-56
2022/08/26 11:45:59;;;;;;;5.45;2.10;;;;;;;35.31;29.91;99981.00;18431035;32;20120;-56
2022/08/26 11:56:08;;;;;;;8.07;2.53;;;;;;;35.76;26.54;99973.16;18432043;32;20092;-56
2022/08/26 12:06:15;;;;;;;14.77;2.60;;;;;;;34.99;24.93;99961.91;18429929;32;20104;-57
2022/08/26 12:16:24;;;;;;;6.93;2.42;;;;;;;35.82;28.82;99947.16;18431197;32;20107;-56
2022/08/26 12:26:31;;;;;;;7.97;2.65;;;;;;;36.10;26.55;99947.47;18429956;32;20097;-56
2022/08/26 12:36:36;;;;;;;6.85;2.28;;;;;;;36.12;27.71;99939.16;18428188;32;20447;-57
2022/08/26 12:46:41;;;;;;;7.97;2.37;;;;;;;35.57;25.83;99919.31;18426726;32;20159;-57
2022/08/26 12:56:48;;;;;;;7.85;2.30;;;;;;;35.85;26.13;99906.06;18429141;32;20088;-57
2022/08/26 13:07:29;;;;;;;9.32;2.10;;;;;;;35.42;26.20;99901.09;18428307;32;20115;-57
2022/08/26 13:17:34;;;;;;;8.97;2.07;;;;;;;36.50;23.07;99889.38;18426728;32;20089;-57
2022/08/26 13:27:38;;;;;;;7.75;2.03;;;;;;;35.90;23.23;99886.53;18422781;32;20479;-57
2022/08/26 13:37:42;;;;;;;5.57;2.30;;;;;;;35.24;23.90;99877.78;18435277;32;20441;-57
2022/08/26 13:47:48;;;;;;;4.07;1.87;;;;;;;36.49;24.26;99861.38;18436742;32;20452;-56
2022/08/26 13:57:53;;;;;;;8.65;2.12;;;;;;;36.36;24.28;99848.44;18434876;32;20114;-57
2022/08/26 14:07:57;;;;;;;7.75;2.20;;;;;;;36.64;22.11;99845.09;18435157;32;20104;-57
2022/08/26 14:18:04;;;;;;;6.32;2.50;;;;;;;35.41;23.18;99854.09;18435125;32;20144;-57
2022/08/26 14:28:10;;;;;;;8.02;2.20;;;;;;;35.40;26.47;99865.16;18432480;32;20111;-57
2022/08/26 14:38:16;;;;;;;8.73;2.45;;;;;;;36.14;24.60;99855.63;18429801;32;20100;-57
2022/08/26 14:48:19;;;;;;;10.30;2.37;;;;;;;35.10;28.02;99859.56;18429271;32;20380;-57
2022/08/26 14:58:24;;;;;;;7.22;2.70;;;;;;;35.80;27.26;99857.75;18427305;32;20097;-57
2022/08/26 15:08:35;;;;;;;7.90;2.45;;;;;;;35.64;27.27;99845.16;18413289;32;20088;-57
2022/08/26 15:18:40;;;;;;;8.30;2.53;;;;;;;34.79;29.61;99842.22;18430206;32;20448;-57
2022/08/26 15:28:43;;;;;;;12.45;2.53;;;;;;;34.32;30.44;99835.72;18432625;32;20129;-57
2022/08/26 15:38:48;;;;;;;10.10;2.37;;;;;;;34.66;32.49;99839.22;18429511;32;20111;-57
2022/08/26 15:48:52;;;;;;;7.07;2.30;;;;;;;34.46;32.48;99826.03;18425027;32;20115;-57
2022/08/26 15:58:58;;;;;;;8.18;2.70;;;;;;;33.49;32.84;99822.25;18428404;32;20108;-57
2022/08/26 16:09:01;;;;;;;8.52;2.20;;;;;;;33.69;33.23;99813.78;18429178;32;20093;-57
2022/08/26 16:19:07;;;;;;;9.95;2.37;;;;;;;33.49;32.76;99808.72;18414979;32;20401;-57
2022/08/26 16:29:12;;;;;;;7.03;2.42;;;;;;;33.25;32.14;99807.62;18413139;32;20119;-57
2022/08/26 16:39:17;;;;;;;9.88;2.70;;;;;;;33.10;33.17;99809.28;18427013;32;20089;-57
2022/08/26 16:49:21;;;;;;;12.82;3.00;;;;;;;32.86;33.53;99808.19;18426537;32;20112;-57
2022/08/26 16:59:26;;;;;;;7.00;2.50;;;;;;;32.51;34.42;99814.44;18434899;32;20089;-56
2022/08/26 17:09:30;;;;;;;7.85;2.58;;;;;;;32.22;36.01;99823.72;18437256;32;20089;-57
2022/08/26 17:19:34;;;;;;;6.40;2.30;;;;;;;31.92;37.69;99820.47;18436133;32;20376;-57
2022/08/26 17:29:43;;;;;;;13.10;3.05;;;;;;;31.52;39.14;99811.00;18435908;32;20172;-56
2022/08/26 17:39:48;;;;;;;9.20;3.00;;;;;;;31.00;39.89;99823.25;18434860;32;20089;-56
2022/08/26 17:49:51;;;;;;;9.18;3.17;;;;;;;30.38;43.02;99818.41;18433752;32;20097;-56
2022/08/26 17:59:56;;;;;;;11.05;3.55;;;;;;;29.89;45.21;99819.34;18422052;32;20122;-56
2022/08/26 18:10:00;;;;;;;11.73;4.03;;;;;;;29.44;47.83;99826.97;18435647;32;20085;-56
2022/08/26 18:20:06;;;;;;;12.20;3.75;;;;;;;29.02;49.27;99822.62;18434923;32;20074;-56
2022/08/26 18:30:13;;;;;;;13.25;3.60;;;;;;;28.54;50.17;99826.81;18430402;32;20089;-56
2022/08/26 18:40:20;;;;;;;9.23;3.90;;;;;;;28.35;50.00;99823.03;18430731;32;20097;-57
2022/08/26 18:50:24;;;;;;;10.55;3.47;;;;;;;28.17;50.51;99830.81;18431687;32;20104;-56
2022/08/26 19:00:30;;;;;;;12.27;3.90;;;;;;;28.08;50.94;99845.91;18430466;32;20089;-56
2022/08/26 19:10:34;;;;;;;11.02;4.22;;;;;;;27.51;52.58;99843.44;18415720;32;20097;-56
2022/08/26 19:20:39;;;;;;;10.13;3.83;;;;;;;26.90;54.60;99852.78;18429077;32;20158;-56
2022/08/26 19:30:49;;;;;;;13.07;4.97;;;;;;;26.80;55.22;99857.16;18429561;32;20100;-56
2022/08/26 19:40:57;;;;;;;10.73;4.28;;;;;;;26.46;56.76;99863.34;18416073;32;20456;-56
2022/08/26 19:51:00;;;;;;;13.50;4.50;;;;;;;26.21;57.97;99864.37;18414075;32;20105;-56
2022/08/26 20:01:09;;;;;;;14.05;4.53;;;;;;;26.03;58.42;99872.81;18423491;32;20143;-58
2022/08/26 20:11:26;;;;;;;11.12;4.10;;;;;;;25.79;58.38;99880.88;18409870;32;20115;-57
2022/08/26 20:21:46;;;;;;;9.38;4.10;;;;;;;25.55;59.22;99885.25;18423765;32;20137;-56
2022/08/26 20:31:49;;;;;;;10.65;4.10;;;;;;;25.18;60.32;99894.09;18422174;32;20420;-55
2022/08/26 20:41:53;;;;;;;10.98;3.60;;;;;;;25.10;60.09;99908.94;18409322;32;20108;-55
2022/08/26 20:51:57;;;;;;;8.80;4.10;;;;;;;25.02;60.21;99910.34;18410109;32;20728;-55
2022/08/26 21:02:01;;;;;;;11.77;4.10;;;;;;;24.62;61.52;99921.97;18422949;32;20127;-56
2022/08/26 21:12:05;;;;;;;11.57;4.00;;;;;;;24.23;62.37;99926.38;18421550;32;20528;-56
2022/08/26 21:22:11;;;;;;;14.20;4.87;;;;;;;24.34;62.75;99939.00;18419048;32;20112;-55
2022/08/26 21:32:14;;;;;;;10.60;3.90;;;;;;;24.42;62.67;99936.69;18420813;32;20089;-55
2022/08/26 21:42:19;;;;;;;13.80;4.40;;;;;;;24.29;62.67;99939.31;18427384;32;20162;-55
2022/08/26 21:52:22;;;;;;;11.45;4.43;;;;;;;24.33;62.44;99939.97;18433974;32;20503;-56
2022/08/26 22:02:27;;;;;;;10.10;4.07;;;;;;;24.32;62.30;99946.25;18453683;32;20128;-56
2022/08/26 22:12:30;;;;;;;11.48;4.28;;;;;;;24.22;62.87;99936.22;18430618;32;20108;-55
2022/08/26 22:22:35;;;;;;;10.57;3.50;;;;;;;24.09;63.07;99929.97;18431258;32;20096;-56
2022/08/26 22:32:39;;;;;;;9.80;4.18;;;;;;;24.12;62.83;99935.13;18429568;32;20483;-55
2022/08/26 22:42:43;;;;;;;10.15;4.22;;;;;;;24.06;62.96;99923.06;18428310;32;20112;-55
2022/08/26 22:53:00;;;;;;;10.82;4.50;;;;;;;23.96;63.24;99921.94;18430020;32;20255;-55
2022/08/26 23:03:04;;;;;;;11.02;3.97;;;;;;;23.78;63.47;99910.66;18430516;32;20107;-55
2022/08/26 23:13:08;;;;;;;11.00;4.03;;;;;;;23.72;63.29;99909.25;18430143;32;20093;-55
2022/08/26 23:23:12;;;;;;;11.80;4.40;;;;;;;23.46;63.89;99908.28;18429928;32;20353;-55
2022/08/26 23:33:16;;;;;;;11.73;4.28;;;;;;;23.44;63.00;99911.03;18429714;32;20120;-55
2022/08/26 23:43:21;;;;;;;11.77;4.57;;;;;;;23.23;63.89;99907.91;18429526;32;20093;-56
2022/08/26 23:53:24;;;;;;;10.07;4.30;;;;;;;23.15;64.04;99895.06;18430119;32;20111;-55
